Талды-Корган

Карта отелей и гостиниц, располагающихся рядом с аэропортом Талды-Корган :

Талды-Корган Алматинская область 45° 7' 21.6012" N, 78° 26' 33.6012" E
Код аэродрома ИКАО
UAAT
Код аэродрома RU
УААТ
Координаты
N45.12267° E078.44267°
Превышение над уровнем моря
592
Основная полоса
02/20
Курс магнитный
020,7/200,7
Длина основной ВПП
2500
Ширина основной ВПП
50
Покрытие основной ВПП
Твёрдое (железобетон)
Освещение ВПП
Постоянное
Тип: 
Аэродром
Принадлежность: 
МО
Статус: 
Действующий
Страна: 
Казахстан
Регион: 
Алматинская область
Дополнительная информация: 
Совместного базирования. Горный. Базируются Су-27 и Миг-29.
Погода: 

Авиационная погода в Талды-Коргане

Регион: 
Погода METAR: 
UAAT 281100Z 03004MPS 9999 NSC M00/M08 Q1027 NOSIG RMK QFE718/0958
Время наблюдения
2021-11-28T11:00:00Z
Температура C
0.0
Точка росы
-8.0
Направление ветра
30
Скорость ветра (узлы)
8
Метео видимость
6.21
Явления погоды
Условия полета
VFR
Аэропорт подробнее: 

Найти трансфер

С помощью этой формы Вы можете найти трансфер из аэропорта Талды-Корган в город, аэропорт или вокзал:

Карта места

Javascript is required to view this map.

Погода в аэропортах:

Авиационная погода в Киркенесе

Регион: 
Погода METAR: 
ENKR 281320Z 17012KT 9999 VCFG FEW001 SCT016 M21/M23 Q1010 RMK WIND 731FT 17018KT
Время наблюдения
2021-11-28T13:20:00Z
Температура C
-21.0
Точка росы
-23.0
Направление ветра
170
Скорость ветра (узлы)
12
Метео видимость
6.21
Явления погоды
VCFG
Условия полета
VFR

Авиационная погода в Симферополе

Погода METAR: 
URFF 281300Z 13002MPS 7000 -SHRA BKN033CB OVC063 13/13 Q1006 R19/290395 NOSIG
Время наблюдения
2021-11-28T13:00:00Z
Температура C
13.0
Точка росы
13.0
Направление ветра
130
Скорость ветра (узлы)
4
Метео видимость
4.35
Явления погоды
-SHRA
Условия полета
MVFR
Аэропорт подробнее: 

Авиационная погода в Ровно

Регион: 
Погода METAR: 
UKLR 281100Z 10003MPS 5000 -RA OVC026 03/03 Q0998 NOSIG
Время наблюдения
2021-11-28T11:00:00Z
Температура C
3.0
Точка росы
3.0
Направление ветра
100
Скорость ветра (узлы)
6
Метео видимость
3.11
Явления погоды
-RA
Условия полета
MVFR
Аэропорт подробнее: 

Авиационная погода в Воронеже

Регион: 
Погода METAR: 
UUOO 281300Z 13002MPS 0250 0200NE R12/0550N FG VV000 06/06 Q1009 R12/290155 NOSIG RMK QBB020 QFE743
Время наблюдения
2021-11-28T13:00:00Z
Температура C
6.0
Точка росы
6.0
Направление ветра
130
Скорость ветра (узлы)
4
Метео видимость
0.16
Явления погоды
FG
Условия полета
LIFR
Аэропорт подробнее: